createdAt,value
2024-02-19T00:01:07.287Z,46.26
2024-02-19T00:03:34.044Z,46.21
2024-02-19T00:06:00.718Z,46.20
2024-02-19T00:08:29.522Z,46.40
2024-02-19T00:10:56.179Z,46.45
2024-02-19T00:13:22.965Z,46.46
2024-02-19T00:15:49.704Z,46.40
2024-02-19T00:18:19.188Z,46.40
2024-02-19T00:20:45.823Z,46.29
2024-02-19T00:23:12.438Z,46.24
2024-02-19T00:25:41.823Z,46.58
2024-02-19T00:28:10.888Z,46.43
2024-02-19T00:30:40.624Z,46.51
2024-02-19T00:33:07.826Z,46.27
2024-02-19T00:35:37.381Z,46.25
2024-02-19T00:38:04.488Z,46.50
2024-02-19T00:40:31.703Z,46.44
2024-02-19T00:43:01.260Z,46.20
2024-02-19T00:45:28.017Z,46.61
2024-02-19T00:47:54.909Z,46.49
2024-02-19T00:50:23.806Z,46.31
2024-02-19T00:52:52.654Z,46.34
2024-02-19T00:55:22.779Z,46.27
2024-02-19T00:57:49.798Z,46.48
2024-02-19T01:00:17.602Z,46.32
2024-02-19T01:02:44.188Z,46.36
2024-02-19T01:05:13.597Z,46.40
2024-02-19T01:07:42.916Z,46.49
2024-02-19T01:10:10.994Z,46.69
2024-02-19T01:12:38.849Z,46.28
2024-02-19T01:15:06.542Z,46.59
2024-02-19T01:17:33.741Z,46.35
2024-02-19T01:20:00.546Z,46.59
2024-02-19T01:22:29.125Z,46.66
2024-02-19T01:24:55.920Z,46.54
2024-02-19T01:27:23.618Z,46.44
2024-02-19T01:29:50.340Z,46.35
2024-02-19T01:32:16.965Z,46.31
2024-02-19T01:34:44.872Z,46.69
2024-02-19T01:37:11.646Z,46.21
2024-02-19T01:39:40.789Z,46.49
2024-02-19T01:42:10.334Z,46.43
2024-02-19T01:44:38.081Z,46.22
2024-02-19T01:47:05.364Z,46.46
2024-02-19T01:49:34.992Z,46.14
2024-02-19T01:52:02.579Z,46.33
2024-02-19T01:54:29.154Z,46.38
2024-02-19T01:56:55.945Z,46.19
2024-02-19T01:59:23.754Z,46.40
2024-02-19T02:01:51.171Z,46.33
2024-02-19T02:04:22.273Z,46.05
2024-02-19T02:06:49.259Z,46.45
2024-02-19T02:09:20.915Z,46.32
2024-02-19T02:11:47.485Z,46.40
2024-02-19T02:14:16.529Z,46.22
2024-02-19T02:16:47.970Z,46.42
2024-02-19T02:19:17.512Z,46.64
2024-02-19T02:21:45.647Z,46.57
2024-02-19T02:24:14.659Z,46.34
2024-02-19T02:26:43.752Z,46.55
2024-02-19T02:29:10.430Z,46.61
2024-02-19T02:31:37.072Z,46.19
2024-02-19T02:34:03.861Z,46.26
2024-02-19T02:36:32.923Z,46.62
2024-02-19T02:38:59.970Z,46.29
2024-02-19T02:41:26.585Z,46.60
2024-02-19T02:43:56.545Z,46.47
2024-02-19T02:46:23.260Z,46.23
2024-02-19T02:48:57.570Z,46.27
2024-02-19T02:51:24.281Z,46.26
2024-02-19T02:53:51.352Z,46.54
2024-02-19T02:56:21.202Z,46.31
2024-02-19T02:58:48.683Z,46.33
2024-02-19T03:01:19.716Z,46.63
2024-02-19T03:03:49.218Z,46.31
2024-02-19T03:06:15.878Z,46.61
2024-02-19T03:08:45.039Z,46.32
2024-02-19T03:11:11.863Z,46.44
2024-02-19T03:13:38.806Z,46.32
2024-02-19T03:16:09.442Z,46.21
2024-02-19T03:18:42.825Z,46.17
2024-02-19T03:21:17.433Z,46.31
2024-02-19T03:23:53.783Z,46.50
2024-02-19T03:26:37.490Z,46.17
2024-02-19T03:29:13.981Z,46.33
2024-02-19T03:31:42.124Z,46.48
2024-02-19T03:34:11.871Z,46.27
2024-02-19T03:36:38.803Z,46.38
2024-02-19T03:39:07.711Z,46.38
2024-02-19T03:41:34.810Z,46.33
2024-02-19T03:44:01.740Z,46.35
2024-02-19T03:46:31.601Z,46.65
2024-02-19T03:49:01.571Z,46.29
2024-02-19T03:51:28.332Z,46.66
2024-02-19T03:53:55.623Z,46.21
2024-02-19T03:56:22.234Z,46.45
2024-02-19T03:58:51.512Z,46.62
2024-02-19T04:01:18.963Z,46.42
2024-02-19T04:03:45.680Z,46.48
2024-02-19T04:06:12.294Z,46.29
2024-02-19T04:08:39.855Z,46.21
2024-02-19T04:11:06.503Z,46.37
2024-02-19T04:13:35.574Z,46.42
2024-02-19T04:16:02.289Z,46.27
2024-02-19T04:18:28.967Z,46.37
2024-02-19T04:21:00.595Z,46.23
2024-02-19T04:23:29.441Z,46.26
2024-02-19T04:26:01.022Z,46.34
2024-02-19T04:28:27.592Z,46.71
2024-02-19T04:30:54.306Z,46.31
2024-02-19T04:33:23.598Z,46.53
2024-02-19T04:35:50.314Z,46.30
2024-02-19T04:38:19.410Z,46.37
2024-02-19T04:40:45.960Z,46.16
2024-02-19T04:43:15.122Z,46.63
2024-02-19T04:45:41.835Z,46.26
2024-02-19T04:48:08.632Z,46.31
2024-02-19T04:50:35.249Z,46.56
2024-02-19T04:53:01.853Z,46.26
2024-02-19T04:55:30.911Z,46.64
2024-02-19T04:58:00.202Z,46.18
2024-02-19T05:00:27.383Z,46.30
2024-02-19T05:02:56.283Z,46.33
2024-02-19T05:05:23.070Z,46.46
2024-02-19T05:07:52.301Z,46.47
2024-02-19T05:10:18.953Z,46.38
2024-02-19T05:12:45.518Z,46.47
2024-02-19T05:15:14.773Z,46.44
2024-02-19T05:17:43.917Z,46.25
2024-02-19T05:20:12.949Z,46.38
2024-02-19T05:22:39.633Z,46.28
2024-02-19T05:25:08.897Z,46.68
2024-02-19T05:27:37.864Z,46.29
2024-02-19T05:30:04.973Z,46.59
2024-02-19T05:32:33.919Z,46.23
2024-02-19T05:35:03.647Z,46.34
2024-02-19T05:37:30.483Z,46.33
2024-02-19T05:39:57.508Z,46.28
2024-02-19T05:42:26.425Z,46.59
2024-02-19T05:44:55.213Z,46.17
2024-02-19T05:47:21.838Z,46.22
2024-02-19T05:49:49.414Z,46.13
2024-02-19T05:52:16.043Z,46.53
2024-02-19T05:54:45.134Z,46.53
2024-02-19T05:57:12.131Z,46.50
2024-02-19T05:59:38.776Z,46.32
2024-02-19T06:02:07.980Z,46.37
2024-02-19T06:04:34.723Z,46.14
2024-02-19T06:07:03.826Z,46.32
2024-02-19T06:09:31.069Z,46.60
2024-02-19T06:11:58.510Z,46.16
2024-02-19T06:14:27.266Z,46.59
2024-02-19T06:16:53.942Z,46.20
2024-02-19T06:19:21.060Z,46.68
2024-02-19T06:21:47.835Z,46.54
2024-02-19T06:24:14.408Z,46.22
2024-02-19T06:26:45.590Z,46.59
2024-02-19T06:29:14.397Z,46.29
2024-02-19T06:31:41.007Z,46.00
2024-02-19T06:34:10.193Z,46.31
2024-02-19T06:36:39.656Z,46.24
2024-02-19T06:39:07.361Z,46.26
2024-02-19T06:41:34.020Z,46.55
2024-02-19T06:44:00.605Z,46.16
2024-02-19T06:46:27.287Z,46.30
2024-02-19T06:48:54.100Z,46.39
2024-02-19T06:51:20.824Z,46.46
2024-02-19T06:53:47.430Z,43.63
2024-02-19T06:56:14.011Z,44.50
2024-02-19T06:58:43.172Z,44.41
2024-02-19T07:01:09.797Z,45.05
2024-02-19T07:03:36.545Z,44.91
2024-02-19T07:06:05.434Z,45.17
2024-02-19T07:08:32.095Z,45.69
2024-02-19T07:10:58.718Z,45.79
2024-02-19T07:13:25.542Z,45.96
2024-02-19T07:15:52.273Z,45.64
2024-02-19T07:18:19.100Z,46.07
2024-02-19T07:20:45.920Z,45.94
2024-02-19T07:23:14.892Z,46.23
2024-02-19T07:25:41.525Z,45.91
2024-02-19T07:28:11.144Z,45.77
2024-02-19T07:30:39.649Z,45.86
2024-02-19T07:33:08.960Z,46.00
2024-02-19T07:35:35.677Z,44.47
2024-02-19T07:38:02.420Z,43.22
2024-02-19T07:40:31.576Z,42.26
2024-02-19T07:43:00.171Z,42.22
2024-02-19T07:45:27.114Z,42.62
2024-02-19T07:47:53.874Z,42.63
2024-02-19T07:50:22.813Z,42.67
2024-02-19T07:52:50.174Z,42.88
2024-02-19T07:55:19.214Z,42.88
2024-02-19T07:57:46.390Z,43.18
2024-02-19T08:00:13.328Z,42.87
2024-02-19T08:02:39.869Z,42.94
2024-02-19T08:05:07.037Z,43.57
2024-02-19T08:07:33.911Z,43.53
2024-02-19T08:10:02.941Z,43.58
2024-02-19T08:12:29.813Z,43.35
2024-02-19T08:14:58.939Z,43.84
2024-02-19T08:17:25.970Z,43.52
2024-02-19T08:19:53.026Z,43.43
2024-02-19T08:22:19.663Z,43.92
2024-02-19T08:24:49.373Z,43.54
2024-02-19T08:27:15.937Z,44.21
2024-02-19T08:29:43.071Z,43.93
2024-02-19T08:32:11.860Z,43.98
2024-02-19T08:34:41.899Z,44.16
2024-02-19T08:37:08.731Z,44.31
2024-02-19T08:39:39.698Z,44.26
2024-02-19T08:42:07.673Z,44.40
2024-02-19T08:44:36.762Z,44.30
2024-02-19T08:47:09.024Z,44.02
2024-02-19T08:49:35.954Z,44.34
2024-02-19T08:52:02.771Z,44.09
2024-02-19T08:54:30.225Z,44.42
2024-02-19T08:57:02.063Z,44.62
2024-02-19T08:59:30.989Z,44.18
2024-02-19T09:01:58.737Z,44.19
2024-02-19T09:04:28.516Z,44.36
2024-02-19T09:06:55.525Z,44.64
2024-02-19T09:09:22.300Z,44.66
2024-02-19T09:11:48.996Z,44.41
2024-02-19T09:14:15.595Z,44.46
2024-02-19T09:16:44.428Z,44.59
2024-02-19T09:19:15.717Z,44.58
2024-02-19T09:21:45.693Z,44.42
2024-02-19T09:24:17.134Z,44.91
2024-02-19T09:26:43.765Z,44.85
2024-02-19T09:29:10.813Z,44.70
2024-02-19T09:31:37.937Z,44.75
2024-02-19T09:34:05.046Z,44.91
2024-02-19T09:36:31.726Z,44.79
2024-02-19T09:38:58.340Z,44.57
2024-02-19T09:41:27.310Z,44.75
2024-02-19T09:43:54.088Z,44.91
2024-02-19T09:46:23.728Z,44.62
2024-02-19T09:48:56.405Z,44.80
2024-02-19T09:51:36.867Z,45.02
2024-02-19T09:54:12.547Z,44.72
2024-02-19T09:56:39.261Z,45.04
2024-02-19T09:59:07.124Z,44.98
2024-02-19T10:01:38.649Z,44.78
2024-02-19T10:04:09.450Z,44.53
2024-02-19T10:06:42.200Z,45.16
2024-02-19T10:09:09.660Z,45.08
2024-02-19T10:11:37.508Z,44.69
2024-02-19T10:14:05.202Z,44.76
2024-02-19T10:16:32.113Z,44.85
2024-02-19T10:19:09.422Z,44.98
2024-02-19T10:21:38.541Z,44.93
2024-02-19T10:24:11.079Z,44.75
2024-02-19T10:26:37.668Z,45.49
2024-02-19T10:29:06.892Z,45.17
2024-02-19T10:31:33.643Z,45.30
2024-02-19T10:34:02.848Z,44.91
2024-02-19T10:36:32.107Z,45.16
2024-02-19T10:38:59.304Z,45.53
2024-02-19T10:41:29.191Z,45.40
2024-02-19T10:43:58.010Z,45.59
2024-02-19T10:46:25.558Z,45.41
2024-02-19T10:48:53.299Z,45.26
2024-02-19T10:51:21.205Z,45.58
2024-02-19T10:54:04.756Z,45.32
2024-02-19T10:56:37.089Z,45.45
2024-02-19T10:59:04.415Z,45.64
2024-02-19T11:01:48.390Z,45.74
2024-02-19T11:04:20.600Z,45.84
2024-02-19T11:06:51.974Z,45.53
2024-02-19T11:09:28.677Z,46.02
2024-02-19T11:12:00.655Z,46.28
2024-02-19T11:14:37.427Z,46.25
2024-02-19T11:17:04.795Z,45.98
2024-02-19T11:19:41.784Z,46.05
2024-02-19T11:22:13.421Z,46.00
2024-02-19T11:24:43.525Z,43.70
2024-02-19T11:27:10.187Z,41.33
2024-02-19T11:29:43.869Z,40.65
2024-02-19T11:32:20.368Z,40.83
2024-02-19T11:34:51.939Z,41.75
2024-02-19T11:37:24.385Z,42.28
2024-02-19T11:39:51.117Z,42.71
2024-02-19T11:42:23.984Z,43.12
2024-02-19T11:44:50.683Z,43.54
2024-02-19T11:47:18.084Z,43.19
2024-02-19T11:49:47.412Z,43.77
2024-02-19T11:52:15.743Z,43.58
2024-02-19T11:54:43.036Z,44.00
2024-02-19T11:57:10.668Z,43.96
2024-02-19T11:59:37.825Z,43.96
2024-02-19T12:02:07.300Z,44.20
2024-02-19T12:04:39.227Z,44.51
2024-02-19T12:07:06.832Z,44.60
2024-02-19T12:09:33.700Z,44.33
2024-02-19T12:12:03.949Z,44.66
2024-02-19T12:14:30.734Z,45.26
2024-02-19T12:16:57.343Z,45.56
2024-02-19T12:19:26.608Z,45.73
2024-02-19T12:21:58.115Z,45.74
2024-02-19T12:24:27.820Z,45.99
2024-02-19T12:26:54.620Z,46.04
2024-02-19T12:29:21.206Z,46.36
2024-02-19T12:31:47.834Z,46.26
2024-02-19T12:34:17.362Z,46.18
2024-02-19T12:36:46.354Z,46.19
2024-02-19T12:39:13.642Z,45.76
2024-02-19T12:41:42.005Z,46.39
2024-02-19T12:44:11.900Z,46.22
2024-02-19T12:46:43.382Z,46.15
2024-02-19T12:49:14.742Z,44.31
2024-02-19T12:51:42.105Z,41.91
2024-02-19T12:54:10.968Z,40.47
2024-02-19T12:56:37.700Z,40.17
2024-02-19T12:59:04.606Z,39.09
2024-02-19T13:01:33.864Z,39.11
2024-02-19T13:04:03.870Z,39.30
2024-02-19T13:06:31.373Z,40.26
2024-02-19T13:09:03.488Z,40.30
2024-02-19T13:11:33.057Z,40.99
2024-02-19T13:14:04.492Z,40.81
2024-02-19T13:16:31.865Z,41.08
2024-02-19T13:19:03.594Z,41.42
2024-02-19T13:21:32.477Z,41.39
2024-02-19T13:24:03.926Z,41.65
2024-02-19T13:26:30.528Z,41.56
2024-02-19T13:29:03.772Z,41.87
2024-02-19T13:31:33.281Z,42.20
2024-02-19T13:34:02.698Z,42.82
2024-02-19T13:36:31.751Z,42.62
2024-02-19T13:39:01.082Z,42.43
2024-02-19T13:41:27.837Z,42.55
2024-02-19T13:43:54.519Z,42.61
2024-02-19T13:46:23.581Z,43.03
2024-02-19T13:49:01.948Z,42.89
2024-02-19T13:51:28.823Z,43.19
2024-02-19T13:53:57.956Z,43.54
2024-02-19T13:56:29.489Z,43.29
2024-02-19T13:58:58.901Z,43.17
2024-02-19T14:01:32.053Z,43.58
2024-02-19T14:04:00.739Z,43.65
2024-02-19T14:06:27.847Z,43.75
2024-02-19T14:08:54.589Z,43.54
2024-02-19T14:11:22.322Z,43.42
2024-02-19T14:13:58.154Z,43.86
2024-02-19T14:16:28.973Z,43.74
2024-02-19T14:18:56.093Z,43.79
2024-02-19T14:21:22.985Z,43.66
2024-02-19T14:23:50.253Z,43.96
2024-02-19T14:26:16.834Z,43.59
2024-02-19T14:28:45.505Z,43.85
2024-02-19T14:31:12.391Z,43.82
2024-02-19T14:33:39.118Z,44.01
2024-02-19T14:36:06.155Z,43.72
2024-02-19T14:38:37.979Z,43.99
2024-02-19T14:41:05.559Z,43.86
2024-02-19T14:43:33.184Z,43.92
2024-02-19T14:46:00.071Z,44.20
2024-02-19T14:48:26.994Z,43.85
2024-02-19T14:50:56.759Z,44.25
2024-02-19T14:53:23.804Z,44.16
2024-02-19T14:55:53.353Z,44.10
2024-02-19T14:58:20.591Z,44.11
2024-02-19T15:00:50.483Z,44.43
2024-02-19T15:03:19.494Z,44.09
2024-02-19T15:05:46.674Z,44.27
2024-02-19T15:08:20.825Z,44.66
2024-02-19T15:10:52.380Z,44.58
2024-02-19T15:13:21.872Z,44.42
2024-02-19T15:15:48.746Z,44.35
2024-02-19T15:18:16.742Z,44.54
2024-02-19T15:20:52.027Z,44.54
2024-02-19T15:23:18.736Z,44.37
2024-02-19T15:25:48.151Z,44.48
2024-02-19T15:28:15.265Z,44.51
2024-02-19T15:30:44.815Z,44.60
2024-02-19T15:33:11.919Z,44.71
2024-02-19T15:35:38.974Z,45.12
2024-02-19T15:38:09.583Z,45.01
2024-02-19T15:40:39.364Z,45.23
2024-02-19T15:43:06.039Z,45.04
2024-02-19T15:45:36.924Z,45.03
2024-02-19T15:48:07.008Z,45.10
2024-02-19T15:50:33.795Z,45.21
2024-02-19T15:53:06.116Z,45.00
2024-02-19T15:55:38.593Z,45.02
2024-02-19T15:58:05.325Z,45.22
2024-02-19T16:00:33.468Z,45.27
2024-02-19T16:03:00.263Z,44.92
2024-02-19T16:05:29.437Z,44.87
2024-02-19T16:08:00.738Z,45.33
2024-02-19T16:10:30.071Z,45.16
2024-02-19T16:12:56.708Z,44.91
2024-02-19T16:15:23.663Z,45.11
2024-02-19T16:17:52.997Z,45.38
2024-02-19T16:20:19.682Z,45.34
2024-02-19T16:22:51.350Z,45.29
2024-02-19T16:25:18.316Z,45.36
2024-02-19T16:27:44.991Z,45.52
2024-02-19T16:30:14.472Z,45.50
2024-02-19T16:32:43.640Z,45.53
2024-02-19T16:35:12.286Z,45.65
2024-02-19T16:37:39.351Z,45.43
2024-02-19T16:40:11.740Z,45.67
2024-02-19T16:42:40.747Z,45.56
2024-02-19T16:45:10.568Z,45.91
2024-02-19T16:47:37.240Z,45.59
2024-02-19T16:50:04.234Z,45.73
2024-02-19T16:52:31.084Z,45.52
2024-02-19T16:55:02.017Z,45.76
2024-02-19T16:57:31.079Z,45.98
2024-02-19T16:59:57.837Z,45.81
2024-02-19T17:02:27.025Z,45.81
2024-02-19T17:04:54.522Z,46.01
2024-02-19T17:07:21.560Z,45.89
2024-02-19T17:09:48.934Z,45.97
2024-02-19T17:12:15.537Z,45.89
2024-02-19T17:14:45.282Z,45.89
2024-02-19T17:17:15.666Z,45.95
2024-02-19T17:19:42.639Z,45.85
2024-02-19T17:22:09.471Z,45.95
2024-02-19T17:24:39.626Z,45.93
2024-02-19T17:27:10.214Z,46.26
2024-02-19T17:29:40.085Z,46.17
2024-02-19T17:32:07.458Z,46.38
2024-02-19T17:34:37.138Z,46.20
2024-02-19T17:37:04.282Z,45.94
2024-02-19T17:39:33.322Z,45.93
2024-02-19T17:42:00.372Z,46.08
2024-02-19T17:44:32.764Z,46.24
2024-02-19T17:47:00.384Z,46.29
2024-02-19T17:49:27.093Z,46.12
2024-02-19T17:51:54.207Z,46.42
2024-02-19T17:54:24.390Z,46.28
2024-02-19T17:56:53.280Z,46.08
2024-02-19T17:59:22.355Z,46.42
2024-02-19T18:01:51.578Z,46.20
2024-02-19T18:04:20.812Z,46.53
2024-02-19T18:06:51.378Z,46.53
2024-02-19T18:09:20.198Z,46.42
2024-02-19T18:11:46.792Z,46.40
2024-02-19T18:14:15.974Z,46.31
2024-02-19T18:16:45.717Z,46.38
2024-02-19T18:19:17.931Z,46.13
2024-02-19T18:21:52.329Z,46.56
2024-02-19T18:24:19.070Z,46.42
2024-02-19T18:26:45.722Z,46.22
2024-02-19T18:29:15.714Z,46.37
2024-02-19T18:31:44.711Z,46.59
2024-02-19T18:34:11.280Z,46.29
2024-02-19T18:36:37.838Z,46.19
2024-02-19T18:39:04.649Z,46.18
2024-02-19T18:41:33.711Z,46.43
2024-02-19T18:44:06.418Z,46.23
2024-02-19T18:46:34.062Z,46.24
2024-02-19T18:49:02.545Z,46.14
2024-02-19T18:51:30.275Z,46.39
2024-02-19T18:53:57.046Z,46.20
2024-02-19T18:56:29.532Z,46.15
2024-02-19T18:58:56.487Z,46.45
2024-02-19T19:01:23.322Z,46.25
2024-02-19T19:03:50.109Z,46.27
2024-02-19T19:06:19.001Z,46.43
2024-02-19T19:08:45.623Z,46.47
2024-02-19T19:11:14.986Z,46.56
2024-02-19T19:13:42.093Z,46.41
2024-02-19T19:16:11.030Z,46.56
2024-02-19T19:18:40.022Z,46.50
2024-02-19T19:21:10.053Z,46.40
2024-02-19T19:23:38.903Z,46.68
2024-02-19T19:26:05.522Z,46.19
2024-02-19T19:28:32.340Z,46.70
2024-02-19T19:30:59.214Z,46.49
2024-02-19T19:33:30.876Z,46.30
2024-02-19T19:35:58.839Z,46.17
2024-02-19T19:38:30.740Z,46.29
2024-02-19T19:41:03.470Z,46.58
2024-02-19T19:43:31.155Z,46.28
2024-02-19T19:46:00.994Z,46.34
2024-02-19T19:48:29.583Z,46.66
2024-02-19T19:50:57.916Z,46.76
2024-02-19T19:53:27.060Z,46.46
2024-02-19T19:55:58.523Z,46.35
2024-02-19T19:58:31.854Z,46.48
2024-02-19T20:01:00.495Z,46.48
2024-02-19T20:03:32.036Z,46.59
2024-02-19T20:05:58.689Z,46.41
2024-02-19T20:08:25.413Z,46.41
2024-02-19T20:10:54.844Z,46.43
2024-02-19T20:13:21.858Z,46.26
2024-02-19T20:15:48.454Z,46.81
2024-02-19T20:18:16.150Z,46.25
2024-02-19T20:20:43.722Z,46.50
2024-02-19T20:23:10.344Z,46.44
2024-02-19T20:25:37.171Z,46.39
2024-02-19T20:28:07.423Z,46.64
2024-02-19T20:30:38.381Z,46.27
2024-02-19T20:33:05.644Z,46.67
2024-02-19T20:35:32.780Z,46.56
2024-02-19T20:37:59.365Z,46.53
2024-02-19T20:40:28.335Z,46.51
2024-02-19T20:42:58.932Z,46.51
2024-02-19T20:45:33.741Z,46.57
2024-02-19T20:48:00.660Z,46.53
2024-02-19T20:50:29.667Z,46.29
2024-02-19T20:52:57.460Z,46.56
2024-02-19T20:55:28.949Z,46.53
2024-02-19T20:57:56.412Z,46.26
2024-02-19T21:00:23.163Z,46.63
2024-02-19T21:02:52.784Z,46.63
2024-02-19T21:05:20.813Z,46.26
2024-02-19T21:07:48.669Z,46.96
2024-02-19T21:10:15.516Z,46.48
2024-02-19T21:12:45.067Z,46.49
2024-02-19T21:15:16.228Z,46.14
2024-02-19T21:17:45.589Z,46.12
2024-02-19T21:20:15.482Z,46.67
2024-02-19T21:22:42.719Z,46.39
2024-02-19T21:25:14.541Z,46.60
2024-02-19T21:27:41.220Z,46.82
2024-02-19T21:30:10.387Z,46.40
2024-02-19T21:32:37.378Z,46.61
2024-02-19T21:35:09.250Z,46.27
2024-02-19T21:37:36.543Z,46.67
2024-02-19T21:40:05.118Z,46.33
2024-02-19T21:42:35.323Z,46.26
2024-02-19T21:45:02.625Z,46.71
2024-02-19T21:47:31.841Z,46.62
2024-02-19T21:49:58.633Z,46.53
2024-02-19T21:52:27.345Z,46.22
2024-02-19T21:54:54.448Z,46.26
2024-02-19T21:57:21.032Z,46.45
2024-02-19T21:59:54.039Z,46.23
2024-02-19T22:02:21.346Z,46.12
2024-02-19T22:04:48.456Z,46.23
2024-02-19T22:07:15.157Z,46.15
2024-02-19T22:09:42.782Z,46.08
2024-02-19T22:12:09.680Z,46.25
2024-02-19T22:14:36.653Z,46.16
2024-02-19T22:17:03.301Z,46.37
2024-02-19T22:19:32.596Z,46.38
2024-02-19T22:22:01.853Z,46.49
2024-02-19T22:24:33.776Z,46.34
2024-02-19T22:27:02.714Z,46.53
2024-02-19T22:29:29.371Z,46.45
2024-02-19T22:31:56.194Z,46.39
2024-02-19T22:34:25.606Z,46.21
2024-02-19T22:36:59.111Z,46.21
2024-02-19T22:39:29.925Z,46.23
2024-02-19T22:41:56.528Z,46.42
2024-02-19T22:44:25.512Z,46.32
2024-02-19T22:46:54.458Z,46.42
2024-02-19T22:49:21.249Z,46.13
2024-02-19T22:51:48.010Z,46.45
2024-02-19T22:54:14.665Z,46.16
2024-02-19T22:56:41.698Z,46.01
2024-02-19T22:59:14.775Z,46.42
2024-02-19T23:01:48.722Z,46.01
2024-02-19T23:04:17.802Z,46.43
2024-02-19T23:06:44.849Z,46.25
2024-02-19T23:09:11.522Z,45.98
2024-02-19T23:11:42.932Z,46.27
2024-02-19T23:14:10.361Z,46.00
2024-02-19T23:16:39.790Z,46.39
2024-02-19T23:19:07.306Z,46.11
2024-02-19T23:21:34.972Z,46.00
2024-02-19T23:24:04.681Z,46.27
2024-02-19T23:26:31.340Z,46.32
2024-02-19T23:29:00.325Z,46.20
2024-02-19T23:31:28.116Z,46.29
2024-02-19T23:33:55.424Z,46.37
2024-02-19T23:36:22.147Z,46.09
2024-02-19T23:38:48.777Z,46.41
2024-02-19T23:41:15.355Z,46.32
2024-02-19T23:43:45.986Z,45.97
2024-02-19T23:46:16.287Z,46.04
2024-02-19T23:48:42.941Z,46.04
2024-02-19T23:51:11.810Z,46.20
2024-02-19T23:53:38.453Z,46.36
2024-02-19T23:56:05.462Z,45.93
2024-02-19T23:58:32.163Z,46.14
